createdAt,value
2019-04-10T00:01:22.337Z,13.00
2019-04-10T00:03:51.598Z,12.92
2019-04-10T00:06:21.668Z,12.96
2019-04-10T00:08:54.706Z,12.93
2019-04-10T00:11:34.615Z,12.76
2019-04-10T00:14:10.281Z,12.82
2019-04-10T00:16:40.570Z,12.77
2019-04-10T00:19:13.132Z,12.62
2019-04-10T00:21:47.312Z,12.80
2019-04-10T00:24:18.223Z,12.95
2019-04-10T00:26:48.029Z,12.88
2019-04-10T00:29:20.358Z,12.95
2019-04-10T00:31:56.371Z,13.03
2019-04-10T00:34:29.606Z,12.91
2019-04-10T00:37:03.847Z,12.76
2019-04-10T00:39:32.924Z,12.79
2019-04-10T00:42:05.080Z,12.68
2019-04-10T00:44:38.338Z,12.55
2019-04-10T00:47:10.828Z,12.63
2019-04-10T00:49:40.285Z,12.66
2019-04-10T00:52:14.264Z,12.67
2019-04-10T00:54:44.609Z,12.88
2019-04-10T00:57:15.077Z,12.97
2019-04-10T00:59:44.236Z,13.21
2019-04-10T01:02:13.291Z,13.21
2019-04-10T01:04:42.827Z,13.43
2019-04-10T01:07:12.747Z,13.34
2019-04-10T01:09:43.763Z,13.29
2019-04-10T01:12:17.828Z,13.22
2019-04-10T01:14:48.545Z,13.17
2019-04-10T01:17:20.622Z,13.30
2019-04-10T01:19:50.281Z,13.21
2019-04-10T01:22:23.909Z,13.11
2019-04-10T01:24:54.347Z,13.05
2019-04-10T01:27:28.520Z,13.07
2019-04-10T01:30:04.219Z,13.10
2019-04-10T01:32:39.766Z,13.03
2019-04-10T01:35:09.921Z,13.00
2019-04-10T01:37:50.272Z,13.03
2019-04-10T01:40:12.952Z,12.88
2019-04-10T01:43:00.443Z,12.76
2019-04-10T01:45:17.531Z,12.59
2019-04-10T01:47:47.614Z,12.67
2019-04-10T01:50:17.948Z,12.50
2019-04-10T01:52:47.728Z,12.53
2019-04-10T01:55:25.289Z,12.52
2019-04-10T01:57:54.703Z,12.42
2019-04-10T02:00:24.485Z,12.16
2019-04-10T02:02:56.688Z,12.04
2019-04-10T02:05:33.227Z,11.67
2019-04-10T02:08:09.075Z,11.54
2019-04-10T02:10:43.068Z,11.45
2019-04-10T02:13:12.164Z,11.73
2019-04-10T02:15:43.982Z,11.78
2019-04-10T02:18:15.944Z,11.74
2019-04-10T02:20:47.735Z,11.69
2019-04-10T02:23:20.692Z,11.49
2019-04-10T02:25:53.459Z,11.70
2019-04-10T02:28:22.776Z,11.70
2019-04-10T02:30:52.101Z,11.67
2019-04-10T02:33:21.269Z,11.73
2019-04-10T02:35:50.571Z,11.52
2019-04-10T02:38:36.288Z,11.50
2019-04-10T02:40:53.364Z,11.53
2019-04-10T02:43:23.299Z,11.53
2019-04-10T02:45:53.068Z,11.47
2019-04-10T02:48:23.467Z,11.28
2019-04-10T02:50:55.543Z,11.11
2019-04-10T02:53:29.603Z,11.37
2019-04-10T02:56:00.181Z,11.23
2019-04-10T02:58:32.431Z,11.44
2019-04-10T03:01:03.178Z,11.49
2019-04-10T03:03:34.225Z,11.27
2019-04-10T03:06:09.228Z,11.15
2019-04-10T03:09:02.209Z,11.25
2019-04-10T03:11:31.206Z,11.27
2019-04-10T03:14:04.622Z,11.44
2019-04-10T03:16:33.754Z,11.14
2019-04-10T03:19:05.391Z,11.09
2019-04-10T03:21:33.663Z,11.19
2019-04-10T03:24:06.261Z,11.05
2019-04-10T03:26:35.296Z,11.05
2019-04-10T03:29:05.334Z,10.86
2019-04-10T03:31:34.654Z,11.04
2019-04-10T03:34:28.209Z,11.02
2019-04-10T03:36:58.065Z,11.24
2019-04-10T03:39:27.786Z,11.25
2019-04-10T03:42:00.909Z,11.54
2019-04-10T03:44:30.484Z,11.70
2019-04-10T03:47:00.796Z,11.66
2019-04-10T03:49:29.914Z,11.67
2019-04-10T03:51:58.970Z,11.74
2019-04-10T03:54:30.218Z,11.73
2019-04-10T03:57:02.495Z,11.71
2019-04-10T03:59:32.679Z,11.79
2019-04-10T04:02:03.213Z,11.84
2019-04-10T04:04:43.941Z,11.79
2019-04-10T04:07:14.099Z,11.44
2019-04-10T04:09:43.997Z,11.27
2019-04-10T04:12:14.754Z,11.52
2019-04-10T04:14:48.465Z,11.66
2019-04-10T04:17:20.068Z,11.49
2019-04-10T04:19:52.637Z,11.43
2019-04-10T04:22:25.009Z,11.29
2019-04-10T04:24:58.186Z,11.15
2019-04-10T04:27:27.720Z,11.07
2019-04-10T04:29:58.154Z,11.06
2019-04-10T04:32:27.352Z,10.97
2019-04-10T04:34:59.832Z,11.09
2019-04-10T04:37:30.100Z,11.10
2019-04-10T04:40:02.961Z,11.02
2019-04-10T04:42:33.293Z,11.09
2019-04-10T04:45:07.095Z,11.08
2019-04-10T04:47:39.769Z,11.04
2019-04-10T04:50:09.764Z,11.25
2019-04-10T04:52:42.111Z,11.20
2019-04-10T04:55:12.230Z,11.20
2019-04-10T04:57:42.319Z,11.09
2019-04-10T05:00:13.204Z,11.10
2019-04-10T05:02:42.669Z,11.02
2019-04-10T05:05:12.103Z,11.08
2019-04-10T05:07:54.772Z,11.02
2019-04-10T05:10:18.514Z,10.97
2019-04-10T05:12:47.638Z,10.98
2019-04-10T05:15:17.102Z,11.00
2019-04-10T05:17:47.126Z,11.08
2019-04-10T05:20:19.041Z,11.00
2019-04-10T05:22:49.190Z,10.73
2019-04-10T05:25:22.586Z,10.83
2019-04-10T05:27:55.940Z,10.95
2019-04-10T05:30:25.119Z,11.07
2019-04-10T05:32:55.702Z,10.97
2019-04-10T05:35:25.707Z,10.76
2019-04-10T05:37:56.099Z,10.97
2019-04-10T05:40:26.054Z,11.00
2019-04-10T05:42:55.561Z,11.17
2019-04-10T05:45:27.564Z,11.16
2019-04-10T05:48:01.255Z,11.14
2019-04-10T05:50:35.725Z,11.24
2019-04-10T05:53:07.702Z,11.25
2019-04-10T05:55:42.006Z,11.08
2019-04-10T05:58:13.364Z,11.15
2019-04-10T06:00:43.172Z,11.26
2019-04-10T06:03:12.773Z,11.39
2019-04-10T06:05:42.439Z,11.39
2019-04-10T06:08:16.106Z,11.20
2019-04-10T06:10:48.013Z,11.15
2019-04-10T06:13:22.921Z,11.19
2019-04-10T06:15:57.347Z,11.28
2019-04-10T06:18:27.150Z,11.17
2019-04-10T06:20:56.671Z,11.31
2019-04-10T06:23:25.980Z,11.34
2019-04-10T06:25:56.309Z,11.59
2019-04-10T06:28:27.940Z,11.66
2019-04-10T06:30:59.112Z,11.51
2019-04-10T06:33:35.998Z,11.62
2019-04-10T06:36:00.814Z,11.51
2019-04-10T06:38:31.751Z,11.59
2019-04-10T06:41:02.181Z,11.63
2019-04-10T06:43:33.578Z,11.44
2019-04-10T06:46:08.361Z,11.53
2019-04-10T06:48:48.655Z,11.72
2019-04-10T06:51:19.797Z,11.63
2019-04-10T06:54:02.567Z,11.54
2019-04-10T06:56:48.753Z,11.74
2019-04-10T06:59:21.234Z,11.60
2019-04-10T07:01:54.518Z,11.58
2019-04-10T07:04:28.767Z,11.82
2019-04-10T07:07:04.494Z,11.73
2019-04-10T07:09:27.621Z,11.80
2019-04-10T07:12:00.975Z,11.91
2019-04-10T07:14:33.020Z,11.66
2019-04-10T07:17:07.118Z,11.64
2019-04-10T07:19:41.413Z,11.41
2019-04-10T07:22:20.735Z,11.41
2019-04-10T07:24:51.832Z,11.54
2019-04-10T07:27:21.841Z,11.61
2019-04-10T07:29:55.119Z,11.76
2019-04-10T07:32:24.241Z,11.81
2019-04-10T07:34:58.247Z,11.81
2019-04-10T07:37:25.982Z,11.66
2019-04-10T07:39:59.733Z,11.75
2019-04-10T07:42:38.036Z,11.66
2019-04-10T07:45:04.459Z,11.52
2019-04-10T07:47:33.525Z,11.34
2019-04-10T07:50:04.580Z,11.23
2019-04-10T07:52:34.989Z,11.41
2019-04-10T07:55:08.605Z,11.63
2019-04-10T07:57:38.485Z,11.31
2019-04-10T08:00:11.185Z,11.60
2019-04-10T08:02:40.890Z,11.55
2019-04-10T08:05:12.264Z,11.62
2019-04-10T08:07:45.120Z,11.70
2019-04-10T08:10:14.320Z,11.34
2019-04-10T08:12:50.421Z,11.63
2019-04-10T08:15:23.202Z,11.78
2019-04-10T08:17:52.627Z,11.64
2019-04-10T08:20:24.021Z,11.73
2019-04-10T08:22:59.446Z,11.72
2019-04-10T08:25:29.135Z,11.72
2019-04-10T08:28:02.763Z,11.77
2019-04-10T08:30:32.805Z,9.93
2019-04-10T08:33:04.433Z,11.77
2019-04-10T08:35:37.913Z,11.87
2019-04-10T08:38:07.674Z,11.91
2019-04-10T08:40:38.264Z,11.83
2019-04-10T08:43:09.749Z,11.73
2019-04-10T08:45:46.657Z,12.03
2019-04-10T08:48:15.909Z,12.02
2019-04-10T08:50:47.989Z,12.14
2019-04-10T08:53:20.127Z,12.07
2019-04-10T08:55:50.416Z,12.17
2019-04-10T08:58:20.927Z,12.08
2019-04-10T09:00:52.365Z,12.00
2019-04-10T09:03:24.613Z,12.32
2019-04-10T09:05:55.282Z,12.17
2019-04-10T09:08:26.696Z,12.04
2019-04-10T09:10:56.066Z,12.01
2019-04-10T09:13:26.871Z,12.33
2019-04-10T09:15:58.398Z,12.40
2019-04-10T09:18:29.510Z,12.46
2019-04-10T09:21:05.005Z,12.31
2019-04-10T09:23:44.403Z,12.69
2019-04-10T09:26:08.045Z,12.53
2019-04-10T09:28:42.243Z,12.46
2019-04-10T09:31:16.191Z,12.18
2019-04-10T09:33:45.414Z,12.34
2019-04-10T09:36:15.344Z,12.19
2019-04-10T09:38:45.541Z,12.36
2019-04-10T09:41:17.477Z,12.05
2019-04-10T09:43:47.626Z,11.99
2019-04-10T09:46:20.438Z,11.85
2019-04-10T09:48:52.010Z,11.81
2019-04-10T09:51:23.586Z,11.58
2019-04-10T09:53:54.538Z,11.75
2019-04-10T09:56:30.528Z,11.43
2019-04-10T09:59:05.300Z,11.63
2019-04-10T10:01:37.954Z,11.69
2019-04-10T10:04:07.168Z,11.59
2019-04-10T10:06:39.614Z,11.76
2019-04-10T10:09:17.751Z,11.82
2019-04-10T10:11:47.354Z,12.01
2019-04-10T10:14:19.656Z,12.05
2019-04-10T10:16:50.616Z,12.22
2019-04-10T10:19:19.696Z,12.26
2019-04-10T10:21:49.081Z,12.18
2019-04-10T10:24:24.811Z,12.70
2019-04-10T10:26:55.644Z,12.68
2019-04-10T10:29:25.989Z,12.25
2019-04-10T10:31:57.062Z,12.38
2019-04-10T10:34:30.299Z,12.45
2019-04-10T10:37:00.168Z,12.21
2019-04-10T10:39:37.219Z,12.33
2019-04-10T10:42:07.512Z,12.59
2019-04-10T10:44:38.270Z,12.51
2019-04-10T10:47:11.641Z,12.82
2019-04-10T10:49:40.258Z,12.99
2019-04-10T10:52:11.131Z,12.85
2019-04-10T10:54:41.094Z,12.70
2019-04-10T10:57:11.003Z,12.61
2019-04-10T11:00:04.123Z,13.02
2019-04-10T11:02:37.989Z,13.28
2019-04-10T11:05:11.232Z,12.76
2019-04-10T11:07:40.632Z,12.82
2019-04-10T11:10:12.562Z,13.18
2019-04-10T11:12:48.597Z,13.48
2019-04-10T11:15:18.373Z,13.70
2019-04-10T11:18:00.265Z,11.83
2019-04-10T11:20:33.936Z,13.56
2019-04-10T11:23:03.996Z,13.11
2019-04-10T11:25:33.463Z,12.74
2019-04-10T11:28:05.920Z,12.90
2019-04-10T11:30:36.271Z,13.10
2019-04-10T11:33:06.473Z,13.02
2019-04-10T11:35:35.546Z,13.00
2019-04-10T11:38:07.209Z,13.29
2019-04-10T11:40:36.639Z,13.32
2019-04-10T11:43:07.690Z,13.29
2019-04-10T11:45:43.547Z,13.53
2019-04-10T11:48:10.334Z,13.45
2019-04-10T11:50:46.197Z,13.14
2019-04-10T11:53:17.782Z,13.49
2019-04-10T11:55:53.623Z,13.67
2019-04-10T11:58:27.107Z,13.79
2019-04-10T12:01:02.549Z,13.52
2019-04-10T12:03:32.223Z,13.56
2019-04-10T12:06:11.470Z,13.82
2019-04-10T12:11:14.558Z,13.90
2019-04-10T12:13:49.084Z,13.71
2019-04-10T12:16:18.286Z,13.89
2019-04-10T12:18:49.319Z,13.97
2019-04-10T12:21:18.436Z,13.77
2019-04-10T12:23:50.052Z,14.52
2019-04-10T12:26:25.483Z,14.74
2019-04-10T12:28:56.187Z,14.82
2019-04-10T12:31:28.690Z,14.71
2019-04-10T12:33:57.787Z,15.06
2019-04-10T12:36:26.851Z,14.98
2019-04-10T12:39:00.561Z,15.44
2019-04-10T12:41:37.868Z,15.22
2019-04-10T12:44:07.781Z,15.16
2019-04-10T12:46:41.527Z,15.08
2019-04-10T12:49:13.038Z,14.65
2019-04-10T12:51:45.748Z,14.62
2019-04-10T12:54:19.366Z,14.73
2019-04-10T12:56:48.620Z,14.65
2019-04-10T12:59:21.478Z,15.09
2019-04-10T13:01:55.406Z,14.53
2019-04-10T13:04:25.927Z,14.68
2019-04-10T13:06:55.029Z,15.20
2019-04-10T13:09:27.504Z,15.02
2019-04-10T13:11:56.746Z,14.66
2019-04-10T13:14:26.598Z,14.60
2019-04-10T13:17:00.908Z,14.79
2019-04-10T13:19:35.648Z,14.86
2019-04-10T13:22:06.189Z,14.54
2019-04-10T13:24:38.871Z,14.54
2019-04-10T13:27:08.095Z,14.49
2019-04-10T13:29:42.610Z,14.63
2019-04-10T13:32:16.869Z,15.08
2019-04-10T13:34:46.361Z,15.30
2019-04-10T13:37:15.812Z,15.26
2019-04-10T13:39:45.355Z,14.89
2019-04-10T13:42:14.760Z,14.95
2019-04-10T13:44:43.989Z,14.74
2019-04-10T13:47:15.408Z,14.74
2019-04-10T13:49:44.685Z,15.06
2019-04-10T13:52:20.248Z,15.29
2019-04-10T13:54:52.751Z,15.30
2019-04-10T13:57:28.708Z,15.05
2019-04-10T14:00:01.742Z,15.03
2019-04-10T14:02:36.008Z,15.00
2019-04-10T14:05:08.472Z,14.74
2019-04-10T14:07:38.836Z,14.37
2019-04-10T14:10:12.995Z,14.46
2019-04-10T14:12:43.021Z,14.65
2019-04-10T14:15:24.322Z,14.53
2019-04-10T14:17:52.342Z,14.22
2019-04-10T14:20:23.653Z,14.35
2019-04-10T14:23:08.452Z,14.33
2019-04-10T14:25:45.290Z,14.12
2019-04-10T14:28:19.598Z,13.99
2019-04-10T14:30:47.329Z,13.78
2019-04-10T14:33:19.772Z,13.95
2019-04-10T14:35:49.521Z,14.27
2019-04-10T14:38:25.205Z,14.12
2019-04-10T14:40:55.543Z,14.16
2019-04-10T14:43:25.156Z,14.47
2019-04-10T14:45:55.440Z,14.62
2019-04-10T14:48:24.620Z,14.66
2019-04-10T14:50:56.218Z,14.45
2019-04-10T14:53:27.939Z,14.67
2019-04-10T14:55:58.109Z,14.68
2019-04-10T14:58:30.582Z,14.59
2019-04-10T15:01:08.393Z,14.55
2019-04-10T15:03:36.585Z,13.98
2019-04-10T15:06:06.790Z,13.95
2019-04-10T15:08:39.647Z,14.31
2019-04-10T15:11:12.687Z,14.72
2019-04-10T15:13:42.385Z,14.48
2019-04-10T15:16:14.813Z,14.52
2019-04-10T15:18:47.821Z,14.63
2019-04-10T15:21:17.045Z,14.97
2019-04-10T15:23:46.826Z,15.05
2019-04-10T15:26:16.032Z,15.01
2019-04-10T15:28:45.102Z,14.94
2019-04-10T15:31:15.149Z,14.47
2019-04-10T15:33:45.004Z,14.40
2019-04-10T15:36:22.232Z,14.55
2019-04-10T15:38:52.756Z,14.65
2019-04-10T15:41:23.908Z,14.53
2019-04-10T15:43:55.148Z,14.63
2019-04-10T15:46:24.761Z,14.69
2019-04-10T15:48:54.989Z,14.78
2019-04-10T15:51:27.930Z,14.42
2019-04-10T15:53:59.110Z,14.60
2019-04-10T15:56:28.286Z,14.42
2019-04-10T15:58:58.009Z,14.17
2019-04-10T16:01:28.938Z,13.99
2019-04-10T16:03:58.946Z,14.09
2019-04-10T16:06:29.248Z,14.37
2019-04-10T16:09:00.930Z,14.62
2019-04-10T16:11:47.995Z,14.58
2019-04-10T16:14:23.189Z,14.28
2019-04-10T16:17:02.536Z,14.28
2019-04-10T16:19:56.345Z,14.08
2019-04-10T16:22:42.649Z,14.26
2019-04-10T16:25:44.826Z,14.19
2019-04-10T16:28:15.562Z,14.23
2019-04-10T16:30:44.667Z,14.27
2019-04-10T16:33:14.728Z,14.34
2019-04-10T16:35:46.245Z,13.89
2019-04-10T16:38:16.372Z,13.81
2019-04-10T16:40:47.978Z,13.64
2019-04-10T16:43:17.159Z,13.78
2019-04-10T16:45:46.919Z,13.91
2019-04-10T16:48:16.939Z,13.78
2019-04-10T16:50:48.109Z,13.82
2019-04-10T16:53:20.053Z,14.03
2019-04-10T16:55:53.565Z,13.99
2019-04-10T16:58:23.547Z,14.10
2019-04-10T17:00:56.156Z,13.94
2019-04-10T17:03:27.628Z,13.85
2019-04-10T17:05:58.647Z,13.92
2019-04-10T17:08:27.948Z,13.86
2019-04-10T17:10:57.454Z,14.02
2019-04-10T17:13:26.776Z,13.98
2019-04-10T17:15:55.919Z,14.01
2019-04-10T17:18:26.098Z,13.91
2019-04-10T17:20:57.250Z,13.82
2019-04-10T17:23:28.864Z,13.83
2019-04-10T17:26:04.484Z,13.82
2019-04-10T17:28:34.532Z,13.77
2019-04-10T17:31:07.510Z,13.83
2019-04-10T17:33:38.399Z,13.74
2019-04-10T17:36:09.798Z,13.92
2019-04-10T17:38:39.713Z,13.65
2019-04-10T17:41:12.207Z,13.65
2019-04-10T17:43:41.520Z,13.61
2019-04-10T17:46:11.088Z,13.83
2019-04-10T17:48:44.049Z,13.87
2019-04-10T17:51:17.787Z,13.91
2019-04-10T17:53:47.427Z,13.79
2019-04-10T17:56:16.837Z,13.61
2019-04-10T17:58:46.339Z,13.65
2019-04-10T18:01:27.053Z,13.61
2019-04-10T18:03:58.979Z,13.77
2019-04-10T18:06:28.473Z,13.71
2019-04-10T18:09:05.429Z,13.73
2019-04-10T18:11:37.559Z,13.69
2019-04-10T18:14:09.446Z,13.23
2019-04-10T18:16:44.273Z,13.29
2019-04-10T18:19:15.340Z,13.25
2019-04-10T18:21:49.874Z,13.23
2019-04-10T18:24:22.729Z,13.19
2019-04-10T18:26:55.295Z,13.30
2019-04-10T18:29:28.301Z,13.16
2019-04-10T18:32:00.114Z,13.01
2019-04-10T18:34:31.495Z,13.25
2019-04-10T18:37:05.642Z,13.22
2019-04-10T18:39:43.834Z,13.12
2019-04-10T18:42:17.330Z,13.05
2019-04-10T18:44:49.392Z,12.90
2019-04-10T18:47:19.063Z,12.66
2019-04-10T18:49:48.196Z,12.68
2019-04-10T18:52:19.202Z,12.45
2019-04-10T18:54:48.165Z,12.64
2019-04-10T18:57:20.042Z,12.68
2019-04-10T19:00:15.251Z,12.53
2019-04-10T19:03:05.462Z,12.64
2019-04-10T19:05:38.375Z,12.81
2019-04-10T19:08:07.531Z,12.93
2019-04-10T19:10:36.862Z,13.05
2019-04-10T19:13:07.460Z,13.19
2019-04-10T19:15:38.720Z,13.31
2019-04-10T19:18:11.486Z,13.28
2019-04-10T19:20:40.895Z,13.29
2019-04-10T19:23:14.974Z,13.31
2019-04-10T19:25:45.543Z,13.38
2019-04-10T19:28:28.847Z,13.33
2019-04-10T19:31:07.944Z,13.36
2019-04-10T19:33:29.178Z,13.39
2019-04-10T19:35:59.415Z,13.36
2019-04-10T19:38:29.423Z,13.35
2019-04-10T19:41:00.542Z,13.22
2019-04-10T19:43:32.102Z,13.25
2019-04-10T19:46:00.698Z,13.21
2019-04-10T19:48:31.075Z,13.28
2019-04-10T19:51:00.172Z,13.33
2019-04-10T19:53:33.149Z,13.33
2019-04-10T19:56:04.790Z,13.26
2019-04-10T19:58:35.013Z,13.31
2019-04-10T20:01:05.169Z,13.34
2019-04-10T20:03:35.387Z,13.46
2019-04-10T20:06:06.336Z,13.36
2019-04-10T20:08:38.103Z,13.27
2019-04-10T20:11:07.213Z,13.34
2019-04-10T20:13:39.289Z,13.27
2019-04-10T20:16:13.087Z,13.33
2019-04-10T20:18:43.274Z,12.99
2019-04-10T20:21:12.454Z,13.40
2019-04-10T20:23:41.530Z,13.38
2019-04-10T20:26:10.736Z,13.20
2019-04-10T20:28:51.791Z,13.15
2019-04-10T20:31:26.607Z,13.10
2019-04-10T20:33:56.950Z,13.22
2019-04-10T20:36:28.991Z,13.23
2019-04-10T20:38:59.347Z,13.26
2019-04-10T20:41:28.757Z,13.19
2019-04-10T20:43:59.519Z,13.02
2019-04-10T20:46:31.632Z,12.99
2019-04-10T20:49:03.179Z,12.99
2019-04-10T20:51:32.558Z,13.02
2019-04-10T20:54:06.545Z,12.90
2019-04-10T20:56:36.820Z,13.01
2019-04-10T20:59:07.793Z,10.94
2019-04-10T21:01:37.242Z,12.70
2019-04-10T21:04:07.301Z,12.47
2019-04-10T21:06:39.460Z,12.50
2019-04-10T21:09:11.377Z,12.38
2019-04-10T21:11:58.864Z,12.47
2019-04-10T21:14:17.707Z,12.55
2019-04-10T21:16:51.967Z,12.45
2019-04-10T21:19:21.042Z,12.21
2019-04-10T21:21:51.691Z,12.34
2019-04-10T21:24:23.175Z,11.64
2019-04-10T21:26:52.767Z,12.20
2019-04-10T21:29:41.936Z,11.85
2019-04-10T21:32:34.653Z,9.88
2019-04-10T21:35:12.179Z,11.73
2019-04-10T21:37:50.750Z,11.73
2019-04-10T21:40:20.901Z,11.83
2019-04-10T21:42:50.023Z,11.71
2019-04-10T21:45:22.611Z,11.77
2019-04-10T21:47:52.306Z,11.74
2019-04-10T21:50:23.149Z,11.65
2019-04-10T21:52:53.071Z,11.79
2019-04-10T21:55:25.235Z,11.68
2019-04-10T21:57:55.393Z,11.68
2019-04-10T22:00:42.966Z,11.76
2019-04-10T22:03:13.503Z,11.57
2019-04-10T22:05:46.828Z,11.23
2019-04-10T22:08:25.870Z,11.21
2019-04-10T22:11:00.789Z,11.23
2019-04-10T22:13:32.392Z,11.01
2019-04-10T22:16:01.797Z,10.93
2019-04-10T22:18:33.713Z,11.03
2019-04-10T22:21:04.184Z,10.95
2019-04-10T22:23:34.341Z,11.01
2019-04-10T22:26:09.464Z,10.93
2019-04-10T22:28:41.331Z,10.93
2019-04-10T22:31:11.654Z,10.94
2019-04-10T22:33:42.862Z,10.90
2019-04-10T22:36:12.879Z,10.77
2019-04-10T22:38:46.202Z,10.68
2019-04-10T22:41:23.747Z,10.67
2019-04-10T22:43:46.973Z,10.66
2019-04-10T22:46:17.226Z,10.70
2019-04-10T22:48:48.592Z,10.70
2019-04-10T22:51:27.249Z,10.62
2019-04-10T22:53:58.377Z,10.67
2019-04-10T22:56:30.087Z,10.70
2019-04-10T22:59:10.146Z,8.67
2019-04-10T23:01:40.890Z,10.26
2019-04-10T23:04:12.002Z,10.10
2019-04-10T23:06:41.693Z,10.00
2019-04-10T23:09:11.960Z,9.89
2019-04-10T23:11:46.183Z,9.99
2019-04-10T23:14:14.387Z,9.90
2019-04-10T23:16:44.838Z,9.69
2019-04-10T23:19:14.147Z,9.40
2019-04-10T23:21:47.013Z,9.51
2019-04-10T23:24:17.300Z,9.51
2019-04-10T23:26:47.068Z,9.67
2019-04-10T23:29:16.188Z,9.53
2019-04-10T23:31:48.499Z,9.60
2019-04-10T23:34:18.768Z,9.80
2019-04-10T23:36:51.333Z,9.63
2019-04-10T23:39:20.443Z,9.78
2019-04-10T23:41:52.322Z,-0.10
2019-04-10T23:44:20.758Z,9.43
2019-04-10T23:46:51.674Z,9.56
2019-04-10T23:49:21.528Z,9.40
2019-04-10T23:51:55.707Z,9.37
2019-04-10T23:54:27.159Z,9.38
2019-04-10T23:56:56.773Z,9.47
2019-04-10T23:59:26.712Z,9.51
